Time,TemperatureF,DewpointF,PressureIn,WindDirection,WindDirectionDegrees,WindSpeedMPH,WindSpeedGustMPH,Humidity,HourlyPrecipIn,Conditions,Clouds,dailyrainin,SoftwareType,DateUTC
2013-06-20 00:01:00,73.4,71.0,30.03,ENE,68,0.0,0.0,92,0.00,,,0.00,WUHU216HW,2013-06-20 04:01:00,
2013-06-20 00:06:00,73.3,70.8,30.03,ENE,68,0.0,0.0,92,0.00,,,0.00,WUHU216HW,2013-06-20 04:06:00,
2013-06-20 00:11:00,73.3,70.8,30.03,ENE,68,0.0,0.0,92,0.00,,,0.00,WUHU216HW,2013-06-20 04:11:00,
2013-06-20 00:16:00,73.3,70.8,30.03,ENE,68,0.0,0.0,92,0.00,,,0.00,WUHU216HW,2013-06-20 04:16:00,
2013-06-20 00:21:00,73.3,70.8,30.04,ENE,68,0.0,0.0,92,0.00,,,0.00,WUHU216HW,2013-06-20 04:21:00,
2013-06-20 00:26:00,73.1,70.3,30.04,ENE,68,0.0,0.0,91,0.00,,,0.00,WUHU216HW,2013-06-20 04:26:00,
2013-06-20 00:31:00,73.1,70.3,30.04,ENE,68,0.0,0.0,91,0.00,,,0.00,WUHU216HW,2013-06-20 04:31:00,
2013-06-20 00:36:00,73.1,70.3,30.04,ENE,68,0.0,0.0,91,0.00,,,0.00,WUHU216HW,2013-06-20 04:36:00,
2013-06-20 00:41:00,73.1,70.3,30.04,ENE,68,0.0,0.0,91,0.00,,,0.00,WUHU216HW,2013-06-20 04:41:00,
2013-06-20 00:46:00,73.1,70.3,30.04,ENE,68,0.0,0.0,91,0.00,,,0.00,WUHU216HW,2013-06-20 04:46:00,
2013-06-20 00:51:00,73.1,70.3,30.04,ENE,68,0.0,0.0,91,0.00,,,0.00,WUHU216HW,2013-06-20 04:51:00,
2013-06-20 00:56:00,73.3,70.8,30.04,ENE,68,0.0,0.0,92,0.00,,,0.00,WUHU216HW,2013-06-20 04:56:00,
2013-06-20 01:01:00,73.4,71.0,30.05,ENE,68,0.0,0.0,92,0.00,,,0.00,WUHU216HW,2013-06-20 05:01:00,
2013-06-20 01:06:00,73.4,71.0,30.05,ENE,68,0.0,0.0,92,0.00,,,0.00,WUHU216HW,2013-06-20 05:06:00,
2013-06-20 01:11:00,73.3,70.8,30.04,ENE,68,0.0,0.0,92,0.00,,,0.00,WUHU216HW,2013-06-20 05:11:00,
2013-06-20 01:16:00,73.3,70.8,30.04,ENE,68,0.0,0.0,92,0.00,,,0.00,WUHU216HW,2013-06-20 05:16:00,
2013-06-20 01:21:00,73.3,70.8,30.05,ENE,68,0.0,0.0,92,0.00,,,0.00,WUHU216HW,2013-06-20 05:21:00,
2013-06-20 01:26:00,73.3,70.8,30.05,ENE,68,0.0,0.0,92,0.00,,,0.00,WUHU216HW,2013-06-20 05:26:00,
2013-06-20 01:31:00,73.3,70.8,30.05,ENE,68,0.0,0.0,92,0.00,,,0.00,WUHU216HW,2013-06-20 05:31:00,
2013-06-20 01:36:00,73.3,70.8,30.04,ENE,68,0.0,0.0,92,0.00,,,0.00,WUHU216HW,2013-06-20 05:36:00,
2013-06-20 01:41:00,73.3,70.8,30.04,ENE,68,0.0,0.0,92,0.00,,,0.00,WUHU216HW,2013-06-20 05:41:00,
2013-06-20 01:46:00,73.3,70.8,30.04,ENE,68,0.0,0.0,92,0.00,,,0.00,WUHU216HW,2013-06-20 05:46:00,
2013-06-20 01:51:00,73.3,70.8,30.05,ENE,68,0.0,0.0,92,0.00,,,0.00,WUHU216HW,2013-06-20 05:51:00,
2013-06-20 01:56:00,73.3,70.8,30.05,ENE,68,0.0,0.0,92,0.00,,,0.00,WUHU216HW,2013-06-20 05:56:00,
2013-06-20 02:01:00,73.3,70.8,30.05,ENE,68,0.0,0.0,92,0.00,,,0.00,WUHU216HW,2013-06-20 06:01:00,
2013-06-20 02:06:00,73.3,71.1,30.05,ENE,68,0.0,0.0,93,0.00,,,0.00,WUHU216HW,2013-06-20 06:06:00,
2013-06-20 02:11:00,73.4,71.0,30.05,ENE,68,0.0,0.0,92,0.00,,,0.00,WUHU216HW,2013-06-20 06:11:00,
2013-06-20 02:16:00,73.4,71.3,30.04,ENE,68,0.0,0.0,93,0.00,,,0.00,WUHU216HW,2013-06-20 06:16:00,
2013-06-20 02:21:00,73.4,71.3,30.04,ENE,68,0.0,0.0,93,0.00,,,0.00,WUHU216HW,2013-06-20 06:21:00,
2013-06-20 02:26:00,73.4,71.0,30.03,ENE,68,0.0,0.0,92,0.00,,,0.00,WUHU216HW,2013-06-20 06:26:00,
2013-06-20 02:31:00,73.4,71.0,30.03,ENE,68,0.0,0.2,92,0.00,,,0.00,WUHU216HW,2013-06-20 06:31:00,
2013-06-20 02:36:00,73.3,70.8,30.03,ENE,68,0.0,0.2,92,0.00,,,0.00,WUHU216HW,2013-06-20 06:36:00,
2013-06-20 02:41:00,73.3,70.8,30.03,ENE,68,0.0,0.0,92,0.00,,,0.00,WUHU216HW,2013-06-20 06:41:00,
2013-06-20 02:46:00,73.3,70.8,30.03,ENE,68,0.0,0.0,92,0.00,,,0.00,WUHU216HW,2013-06-20 06:46:00,
2013-06-20 02:51:00,73.3,71.1,30.03,ENE,68,0.0,0.0,93,0.00,,,0.00,WUHU216HW,2013-06-20 06:51:00,
2013-06-20 02:56:00,73.3,71.1,30.03,ENE,68,0.0,0.0,93,0.00,,,0.00,WUHU216HW,2013-06-20 06:56:00,
2013-06-20 03:01:00,73.3,71.1,30.03,ENE,68,0.0,0.0,93,0.00,,,0.00,WUHU216HW,2013-06-20 07:01:00,
2013-06-20 03:06:00,73.3,71.1,30.03,ENE,68,0.0,0.0,93,0.00,,,0.00,WUHU216HW,2013-06-20 07:06:00,
2013-06-20 03:11:00,73.3,71.1,30.02,ENE,68,0.0,0.0,93,0.00,,,0.00,WUHU216HW,2013-06-20 07:11:00,
2013-06-20 03:16:00,73.3,71.1,30.02,ENE,68,0.0,0.0,93,0.00,,,0.00,WUHU216HW,2013-06-20 07:16:00,
2013-06-20 03:21:00,73.3,70.8,30.03,ENE,68,0.0,0.0,92,0.00,,,0.00,WUHU216HW,2013-06-20 07:21:00,
2013-06-20 03:26:00,73.4,71.0,30.02,ENE,68,0.0,0.0,92,0.00,,,0.00,WUHU216HW,2013-06-20 07:26:00,
2013-06-20 03:31:00,73.4,71.3,30.02,ENE,68,0.0,0.0,93,0.00,,,0.00,WUHU216HW,2013-06-20 07:31:00,
2013-06-20 03:36:00,73.4,71.3,30.02,ENE,68,0.0,0.0,93,0.00,,,0.00,WUHU216HW,2013-06-20 07:36:00,
2013-06-20 03:41:00,73.4,71.3,30.02,ENE,68,0.0,0.0,93,0.00,,,0.00,WUHU216HW,2013-06-20 07:41:00,
2013-06-20 03:46:00,73.4,71.3,30.02,ENE,68,0.0,0.0,93,0.00,,,0.00,WUHU216HW,2013-06-20 07:46:00,
2013-06-20 03:51:00,73.3,71.1,30.02,ENE,68,0.0,0.0,93,0.00,,,0.00,WUHU216HW,2013-06-20 07:51:00,
2013-06-20 03:56:00,73.3,71.1,30.02,ENE,68,0.0,0.0,93,0.00,,,0.00,WUHU216HW,2013-06-20 07:56:00,
2013-06-20 04:01:00,73.3,71.1,30.03,ENE,68,0.0,0.0,93,0.00,,,0.00,WUHU216HW,2013-06-20 08:01:00,
2013-06-20 04:06:00,73.3,71.1,30.02,ENE,68,0.0,0.0,93,0.00,,,0.00,WUHU216HW,2013-06-20 08:06:00,
2013-06-20 04:11:00,73.3,70.8,30.03,ENE,68,0.0,0.0,92,0.00,,,0.00,WUHU216HW,2013-06-20 08:11:00,
2013-06-20 04:16:00,73.3,70.8,30.03,ENE,68,0.0,0.0,92,0.00,,,0.00,WUHU216HW,2013-06-20 08:16:00,
2013-06-20 04:21:00,73.3,70.8,30.03,ENE,68,0.0,0.0,92,0.00,,,0.00,WUHU216HW,2013-06-20 08:21:00,
2013-06-20 04:26:00,73.4,71.0,30.03,ENE,68,0.0,0.4,92,0.00,,,0.00,WUHU216HW,2013-06-20 08:26:00,
2013-06-20 04:31:00,73.4,71.0,30.03,ESE,113,0.4,1.1,92,0.00,,,0.00,WUHU216HW,2013-06-20 08:31:00,
2013-06-20 04:36:00,73.4,71.3,30.03,ESE,113,0.0,1.1,93,0.00,,,0.00,WUHU216HW,2013-06-20 08:36:00,
2013-06-20 04:41:00,73.4,71.3,30.03,East,90,1.1,1.1,93,0.00,,,0.00,WUHU216HW,2013-06-20 08:41:00,
2013-06-20 04:46:00,73.6,71.5,30.03,East,90,0.2,1.3,93,0.00,,,0.00,WUHU216HW,2013-06-20 08:46:00,
2013-06-20 04:51:00,73.6,71.5,30.03,East,90,0.0,1.3,93,0.00,,,0.00,WUHU216HW,2013-06-20 08:51:00,
2013-06-20 04:56:00,73.6,71.5,30.03,East,90,0.0,0.9,93,0.00,,,0.00,WUHU216HW,2013-06-20 08:56:00,
2013-06-20 05:01:00,73.4,71.3,30.04,East,90,0.0,0.9,93,0.00,,,0.00,WUHU216HW,2013-06-20 09:01:00,
2013-06-20 05:06:00,73.4,71.3,30.04,East,90,0.0,0.2,93,0.00,,,0.00,WUHU216HW,2013-06-20 09:06:00,
2013-06-20 05:11:00,73.4,71.0,30.04,East,90,0.9,0.9,92,0.00,,,0.00,WUHU216HW,2013-06-20 09:11:00,
2013-06-20 05:16:00,73.4,71.0,30.04,East,90,0.2,0.9,92,0.00,,,0.00,WUHU216HW,2013-06-20 09:16:00,
2013-06-20 05:21:00,73.4,71.0,30.05,East,90,1.1,1.8,92,0.00,,,0.00,WUHU216HW,2013-06-20 09:21:00,
2013-06-20 05:26:00,73.3,70.8,30.05,East,90,1.1,1.8,92,0.00,,,0.00,WUHU216HW,2013-06-20 09:26:00,
2013-06-20 05:31:00,73.3,70.8,30.04,East,90,2.5,2.5,92,0.00,,,0.00,WUHU216HW,2013-06-20 09:31:00,
2013-06-20 05:36:00,73.3,70.8,30.05,East,90,0.7,2.5,92,0.00,,,0.00,WUHU216HW,2013-06-20 09:36:00,
2013-06-20 05:41:00,73.1,70.7,30.05,East,90,0.7,3.1,92,0.00,,,0.00,WUHU216HW,2013-06-20 09:41:00,
2013-06-20 05:46:00,73.1,70.7,30.05,ENE,68,0.4,3.1,92,0.00,,,0.00,WUHU216HW,2013-06-20 09:46:00,
2013-06-20 05:51:00,73.1,70.7,30.05,ENE,68,0.4,1.3,92,0.00,,,0.00,WUHU216HW,2013-06-20 09:51:00,
2013-06-20 05:56:00,73.1,70.7,30.05,ENE,68,0.2,0.4,92,0.00,,,0.00,WUHU216HW,2013-06-20 09:56:00,
2013-06-20 06:01:00,73.1,70.7,30.06,ESE,113,1.1,1.8,92,0.00,,,0.00,WUHU216HW,2013-06-20 10:01:00,
2013-06-20 06:06:00,73.1,70.7,30.06,ESE,113,0.0,1.8,92,0.00,,,0.00,WUHU216HW,2013-06-20 10:06:00,
2013-06-20 06:11:00,73.1,70.7,30.05,ESE,113,0.0,1.1,92,0.00,,,0.00,WUHU216HW,2013-06-20 10:11:00,
2013-06-20 06:16:00,73.1,70.7,30.06,ESE,113,0.4,0.9,92,0.00,,,0.00,WUHU216HW,2013-06-20 10:16:00,
2013-06-20 06:21:00,73.1,70.7,30.06,East,90,0.0,1.6,92,0.00,,,0.00,WUHU216HW,2013-06-20 10:21:00,
2013-06-20 06:26:00,73.1,70.7,30.06,East,90,1.3,1.6,92,0.00,,,0.00,WUHU216HW,2013-06-20 10:26:00,
2013-06-20 06:31:00,72.9,70.5,30.06,East,90,0.2,1.3,92,0.00,,,0.00,WUHU216HW,2013-06-20 10:31:00,
2013-06-20 06:36:00,72.9,70.5,30.06,East,90,0.0,0.9,92,0.00,,,0.00,WUHU216HW,2013-06-20 10:36:00,
2013-06-20 06:41:00,72.9,70.5,30.06,East,90,1.1,1.8,92,0.00,,,0.00,WUHU216HW,2013-06-20 10:41:00,
2013-06-20 06:46:00,72.9,70.5,30.06,East,90,0.0,1.8,92,0.00,,,0.00,WUHU216HW,2013-06-20 10:46:00,
2013-06-20 06:51:00,72.9,70.5,30.07,North,0,0.0,0.7,92,0.00,,,0.00,WUHU216HW,2013-06-20 10:51:00,
2013-06-20 06:56:00,72.7,70.3,30.07,ESE,113,0.0,0.2,92,0.00,,,0.00,WUHU216HW,2013-06-20 10:56:00,
2013-06-20 07:01:00,72.9,70.5,30.07,ESE,113,0.0,0.2,92,0.00,,,0.00,WUHU216HW,2013-06-20 11:01:00,
2013-06-20 07:06:00,72.9,70.5,30.07,East,90,0.0,0.2,92,0.00,,,0.00,WUHU216HW,2013-06-20 11:06:00,
2013-06-20 07:11:00,73.1,70.7,30.08,East,90,0.0,0.2,92,0.00,,,0.00,WUHU216HW,2013-06-20 11:11:00,
2013-06-20 07:16:00,73.1,70.7,30.08,ESE,113,0.4,0.7,92,0.00,,,0.00,WUHU216HW,2013-06-20 11:16:00,
2013-06-20 07:21:00,73.1,70.7,30.08,East,90,0.4,0.7,92,0.00,,,0.00,WUHU216HW,2013-06-20 11:21:00,
2013-06-20 07:26:00,73.1,70.7,30.08,East,90,0.4,3.4,92,0.00,,,0.00,WUHU216HW,2013-06-20 11:26:00,
2013-06-20 07:31:00,73.1,70.7,30.08,East,90,1.8,3.4,92,0.00,,,0.00,WUHU216HW,2013-06-20 11:31:00,
2013-06-20 07:36:00,73.1,70.7,30.08,ESE,113,2.0,2.7,92,0.00,,,0.00,WUHU216HW,2013-06-20 11:36:00,
2013-06-20 07:41:00,73.1,70.7,30.08,ESE,113,0.2,2.0,92,0.00,,,0.00,WUHU216HW,2013-06-20 11:41:00,
2013-06-20 07:46:00,73.3,70.8,30.09,East,90,1.8,1.8,92,0.01,,,0.00,WUHU216HW,2013-06-20 11:46:00,
2013-06-20 07:51:00,73.3,70.8,30.09,ENE,68,1.3,1.8,92,0.01,,,0.01,WUHU216HW,2013-06-20 11:51:00,
2013-06-20 07:56:00,73.3,70.8,30.09,East,90,0.0,1.8,92,0.01,,,0.01,WUHU216HW,2013-06-20 11:56:00,
2013-06-20 08:01:00,73.3,70.8,30.09,ENE,68,0.7,2.5,92,0.01,,,0.01,WUHU216HW,2013-06-20 12:01:00,
2013-06-20 08:06:00,73.3,70.8,30.10,ENE,68,3.4,3.4,92,0.01,,,0.01,WUHU216HW,2013-06-20 12:06:00,
2013-06-20 08:10:00,73.3,70.8,30.10,East,90,2.5,3.4,92,0.01,,,0.01,WUHU216HW,2013-06-20 12:10:00,
2013-06-20 08:15:00,73.3,70.8,30.10,East,90,0.9,2.5,92,0.01,,,0.01,WUHU216HW,2013-06-20 12:15:00,
2013-06-20 08:20:00,73.1,70.7,30.10,East,90,0.7,3.4,92,0.01,,,0.01,WUHU216HW,2013-06-20 12:20:00,
2013-06-20 08:25:00,73.3,70.8,30.11,East,90,2.0,3.4,92,0.01,,,0.01,WUHU216HW,2013-06-20 12:25:00,
2013-06-20 08:30:00,73.4,71.3,30.11,East,90,2.5,2.5,93,0.01,,,0.01,WUHU216HW,2013-06-20 12:30:00,
2013-06-20 08:35:00,73.8,71.6,30.11,North,0,0.4,4.0,93,0.01,,,0.01,WUHU216HW,2013-06-20 12:35:00,
2013-06-20 08:40:00,73.8,71.6,30.11,ESE,113,0.7,4.0,93,0.01,,,0.01,WUHU216HW,2013-06-20 12:40:00,
2013-06-20 08:45:00,73.8,71.6,30.11,East,90,0.9,2.0,93,0.00,,,0.01,WUHU216HW,2013-06-20 12:45:00,
2013-06-20 08:50:00,73.8,71.4,30.11,East,90,2.5,4.0,92,0.00,,,0.01,WUHU216HW,2013-06-20 12:50:00,
2013-06-20 08:55:00,73.8,71.4,30.11,ENE,68,3.6,5.8,92,0.00,,,0.01,WUHU216HW,2013-06-20 12:55:00,
2013-06-20 09:00:00,73.8,71.4,30.12,East,90,3.4,5.8,92,0.00,,,0.01,WUHU216HW,2013-06-20 13:00:00,
2013-06-20 09:05:00,74.0,71.6,30.11,East,90,1.8,4.5,92,0.00,,,0.01,WUHU216HW,2013-06-20 13:05:00,
2013-06-20 09:10:00,73.8,71.4,30.11,East,90,2.5,4.7,92,0.00,,,0.01,WUHU216HW,2013-06-20 13:10:00,
2013-06-20 09:15:00,73.8,71.4,30.12,ENE,68,1.1,6.7,92,0.00,,,0.01,WUHU216HW,2013-06-20 13:15:00,
2013-06-20 09:20:00,73.8,71.4,30.12,ESE,113,2.5,6.7,92,0.00,,,0.01,WUHU216HW,2013-06-20 13:20:00,
2013-06-20 09:25:00,73.8,71.4,30.12,East,90,0.7,2.5,92,0.00,,,0.01,WUHU216HW,2013-06-20 13:25:00,
2013-06-20 09:30:00,73.8,71.4,30.12,ESE,113,1.8,5.4,92,0.00,,,0.01,WUHU216HW,2013-06-20 13:30:00,
2013-06-20 09:35:00,73.8,71.4,30.12,ESE,113,3.8,5.4,92,0.00,,,0.01,WUHU216HW,2013-06-20 13:35:00,
2013-06-20 09:40:00,73.8,71.4,30.12,ENE,68,6.5,6.5,92,0.00,,,0.01,WUHU216HW,2013-06-20 13:40:00,
2013-06-20 09:45:00,74.2,71.7,30.12,ENE,68,0.2,6.5,92,0.00,,,0.01,WUHU216HW,2013-06-20 13:45:00,
2013-06-20 09:50:00,74.2,71.7,30.12,East,90,2.5,4.0,92,0.00,,,0.01,WUHU216HW,2013-06-20 13:50:00,
2013-06-20 09:55:00,74.5,72.1,30.12,ENE,68,1.8,3.8,92,0.00,,,0.01,WUHU216HW,2013-06-20 13:55:00,
2013-06-20 10:00:00,74.7,72.3,30.12,East,90,2.5,4.0,92,0.00,,,0.01,WUHU216HW,2013-06-20 14:00:00,
2013-06-20 10:05:00,75.1,72.6,30.13,ENE,68,1.8,4.7,92,0.00,,,0.01,WUHU216HW,2013-06-20 14:05:00,
2013-06-20 10:10:00,75.1,72.3,30.13,ENE,68,3.4,4.7,91,0.00,,,0.01,WUHU216HW,2013-06-20 14:10:00,
2013-06-20 10:15:00,75.1,72.3,30.12,ENE,68,2.5,3.4,91,0.00,,,0.01,WUHU216HW,2013-06-20 14:15:00,
2013-06-20 10:20:00,75.2,72.5,30.12,East,90,3.8,4.7,91,0.00,,,0.01,WUHU216HW,2013-06-20 14:20:00,
2013-06-20 10:25:00,75.2,72.2,30.12,East,90,3.4,4.7,90,0.00,,,0.01,WUHU216HW,2013-06-20 14:25:00,
2013-06-20 10:30:00,75.2,72.2,30.12,East,90,0.4,4.7,90,0.00,,,0.01,WUHU216HW,2013-06-20 14:30:00,
2013-06-20 10:35:00,75.2,72.2,30.12,East,90,1.6,4.7,90,0.00,,,0.01,WUHU216HW,2013-06-20 14:35:00,
2013-06-20 10:40:00,75.2,72.2,30.12,ENE,68,4.7,5.4,90,0.00,,,0.01,WUHU216HW,2013-06-20 14:40:00,
2013-06-20 10:45:00,75.6,72.2,30.13,ENE,68,2.7,5.4,89,0.00,,,0.01,WUHU216HW,2013-06-20 14:45:00,
2013-06-20 10:50:00,75.6,72.2,30.13,ENE,68,2.5,7.6,89,0.00,,,0.01,WUHU216HW,2013-06-20 14:50:00,
2013-06-20 10:55:00,75.8,72.4,30.13,ESE,113,2.5,7.6,89,0.00,,,0.01,WUHU216HW,2013-06-20 14:55:00,
2013-06-20 11:00:00,76.0,72.5,30.13,East,90,1.8,4.7,89,0.00,,,0.01,WUHU216HW,2013-06-20 15:00:00,
2013-06-20 11:05:00,76.0,72.5,30.13,NE,45,7.8,7.8,89,0.00,,,0.01,WUHU216HW,2013-06-20 15:05:00,
2013-06-20 11:10:00,76.1,72.4,30.13,ENE,68,1.6,7.8,88,0.00,,,0.01,WUHU216HW,2013-06-20 15:10:00,
2013-06-20 11:15:00,76.0,72.2,30.13,ENE,68,2.5,4.0,88,0.00,,,0.01,WUHU216HW,2013-06-20 15:15:00,
2013-06-20 11:20:00,76.0,72.2,30.14,ESE,113,4.0,5.8,88,0.00,,,0.01,WUHU216HW,2013-06-20 15:20:00,
2013-06-20 11:25:00,76.0,71.8,30.14,East,90,2.7,6.3,87,0.00,,,0.01,WUHU216HW,2013-06-20 15:25:00,
2013-06-20 11:30:00,76.0,71.8,30.14,East,90,4.7,6.3,87,0.00,,,0.01,WUHU216HW,2013-06-20 15:30:00,
2013-06-20 11:35:00,76.0,71.8,30.14,ESE,113,3.6,6.0,87,0.00,,,0.01,WUHU216HW,2013-06-20 15:35:00,
2013-06-20 11:40:00,76.0,71.8,30.14,NNE,23,1.1,11.0,87,0.00,,,0.01,WUHU216HW,2013-06-20 15:40:00,
2013-06-20 11:45:00,76.1,71.6,30.14,East,90,5.1,11.0,86,0.00,,,0.01,WUHU216HW,2013-06-20 15:45:00,
2013-06-20 11:50:00,76.3,71.8,30.14,East,90,1.8,5.8,86,0.00,,,0.01,WUHU216HW,2013-06-20 15:50:00,
2013-06-20 11:55:00,76.5,72.0,30.14,ESE,113,0.7,5.8,86,0.00,,,0.01,WUHU216HW,2013-06-20 15:55:00,
2013-06-20 12:00:00,76.5,72.0,30.15,ENE,68,3.8,4.7,86,0.00,,,0.01,WUHU216HW,2013-06-20 16:00:00,
2013-06-20 12:05:00,76.5,72.0,30.15,SSE,158,0.7,4.5,86,0.00,,,0.01,WUHU216HW,2013-06-20 16:05:00,
2013-06-20 12:10:00,76.7,72.2,30.15,ENE,68,1.8,2.7,86,0.00,,,0.01,WUHU216HW,2013-06-20 16:10:00,
2013-06-20 12:15:00,76.7,72.2,30.15,East,90,0.4,5.4,86,0.00,,,0.01,WUHU216HW,2013-06-20 16:15:00,
2013-06-20 12:20:00,76.7,71.8,30.15,ENE,68,2.0,5.4,85,0.00,,,0.01,WUHU216HW,2013-06-20 16:20:00,
2013-06-20 12:25:00,76.7,71.8,30.15,ENE,68,4.7,5.4,85,0.00,,,0.01,WUHU216HW,2013-06-20 16:25:00,
2013-06-20 12:30:00,76.7,71.8,30.15,ENE,68,2.7,5.4,85,0.00,,,0.01,WUHU216HW,2013-06-20 16:30:00,
2013-06-20 12:35:00,76.7,71.8,30.15,ENE,68,2.0,8.3,85,0.00,,,0.01,WUHU216HW,2013-06-20 16:35:00,
2013-06-20 12:40:00,76.7,71.8,30.15,East,90,4.7,8.3,85,0.00,,,0.01,WUHU216HW,2013-06-20 16:40:00,
2013-06-20 12:45:00,76.9,72.0,30.15,ESE,113,4.0,4.7,85,0.00,,,0.01,WUHU216HW,2013-06-20 16:45:00,
2013-06-20 12:50:00,77.0,72.2,30.15,ENE,68,1.8,5.4,85,0.00,,,0.01,WUHU216HW,2013-06-20 16:50:00,
2013-06-20 12:55:00,77.4,72.2,30.15,East,90,5.6,5.6,84,0.00,,,0.01,WUHU216HW,2013-06-20 16:55:00,
2013-06-20 13:00:00,77.6,72.4,30.15,NW,315,0.4,6.9,84,0.00,,,0.01,WUHU216HW,2013-06-20 17:00:00,
2013-06-20 13:05:00,77.9,72.7,30.14,ENE,68,2.5,6.9,84,0.00,,,0.01,WUHU216HW,2013-06-20 17:05:00,
2013-06-20 13:10:00,78.5,72.9,30.14,East,90,7.6,7.6,83,0.00,,,0.01,WUHU216HW,2013-06-20 17:10:00,
2013-06-20 13:15:00,78.8,72.9,30.14,ENE,68,4.5,7.6,82,0.00,,,0.01,WUHU216HW,2013-06-20 17:15:00,
2013-06-20 13:20:00,79.0,73.1,30.14,NE,45,0.9,7.4,82,0.00,,,0.01,WUHU216HW,2013-06-20 17:20:00,
2013-06-20 13:25:00,79.2,73.3,30.14,East,90,2.2,7.4,82,0.00,,,0.01,WUHU216HW,2013-06-20 17:25:00,
2013-06-20 13:30:00,79.4,73.5,30.13,ENE,68,2.5,5.4,82,0.00,,,0.01,WUHU216HW,2013-06-20 17:30:00,
2013-06-20 13:35:00,79.4,73.1,30.13,East,90,1.8,5.4,81,0.00,,,0.01,WUHU216HW,2013-06-20 17:35:00,
2013-06-20 13:40:00,79.6,73.3,30.14,ENE,68,1.1,6.0,81,0.00,,,0.01,WUHU216HW,2013-06-20 17:40:00,
2013-06-20 13:45:00,79.6,73.3,30.14,WNW,293,0.7,6.0,81,0.00,,,0.01,WUHU216HW,2013-06-20 17:45:00,
2013-06-20 13:50:00,79.6,73.3,30.14,ENE,68,1.8,6.3,81,0.00,,,0.01,WUHU216HW,2013-06-20 17:50:00,
2013-06-20 13:55:00,79.6,73.3,30.14,SSE,158,2.2,6.5,81,0.00,,,0.01,WUHU216HW,2013-06-20 17:55:00,
2013-06-20 14:00:00,79.4,73.1,30.14,East,90,2.5,6.5,81,0.00,,,0.01,WUHU216HW,2013-06-20 18:00:00,
2013-06-20 14:05:00,79.4,73.1,30.14,ESE,113,5.4,6.7,81,0.00,,,0.01,WUHU216HW,2013-06-20 18:05:00,
2013-06-20 14:10:00,79.2,72.9,30.14,East,90,6.3,6.7,81,0.00,,,0.01,WUHU216HW,2013-06-20 18:10:00,
2013-06-20 14:15:00,79.2,72.9,30.14,ENE,68,5.8,7.6,81,0.00,,,0.01,WUHU216HW,2013-06-20 18:15:00,
2013-06-20 14:20:00,79.0,72.7,30.14,NE,45,1.1,7.6,81,0.00,,,0.01,WUHU216HW,2013-06-20 18:20:00,
2013-06-20 14:25:00,78.8,72.5,30.14,ESE,113,2.5,5.1,81,0.00,,,0.01,WUHU216HW,2013-06-20 18:25:00,
2013-06-20 14:30:00,78.7,72.4,30.14,ENE,68,3.4,5.1,81,0.00,,,0.01,WUHU216HW,2013-06-20 18:30:00,
2013-06-20 14:35:00,78.5,72.5,30.14,ENE,68,3.4,4.7,82,0.00,,,0.01,WUHU216HW,2013-06-20 18:35:00,
2013-06-20 14:40:00,78.3,72.0,30.14,East,90,6.3,6.3,81,0.00,,,0.01,WUHU216HW,2013-06-20 18:40:00,
2013-06-20 14:45:00,78.1,71.8,30.14,East,90,3.4,7.2,81,0.00,,,0.01,WUHU216HW,2013-06-20 18:45:00,
2013-06-20 14:50:00,77.8,71.5,30.14,NE,45,7.4,7.4,81,0.00,,,0.01,WUHU216HW,2013-06-20 18:50:00,
2013-06-20 14:55:00,77.6,71.6,30.14,ENE,68,5.1,7.4,82,0.00,,,0.01,WUHU216HW,2013-06-20 18:55:00,
2013-06-20 15:00:00,77.6,71.6,30.14,ENE,68,4.7,5.4,82,0.00,,,0.01,WUHU216HW,2013-06-20 19:00:00,
2013-06-20 15:05:00,77.6,71.6,30.14,ENE,68,1.6,5.4,82,0.00,,,0.01,WUHU216HW,2013-06-20 19:05:00,
2013-06-20 15:10:00,77.8,71.8,30.13,ENE,68,2.0,6.3,82,0.00,,,0.01,WUHU216HW,2013-06-20 19:10:00,
2013-06-20 15:15:00,78.1,72.2,30.13,ENE,68,3.4,6.3,82,0.00,,,0.01,WUHU216HW,2013-06-20 19:15:00,
2013-06-20 15:20:00,78.5,72.5,30.13,ENE,68,1.8,4.7,82,0.00,,,0.01,WUHU216HW,2013-06-20 19:20:00,
2013-06-20 15:25:00,78.7,72.7,30.13,NW,315,0.9,2.2,82,0.00,,,0.01,WUHU216HW,2013-06-20 19:25:00,
2013-06-20 15:30:00,78.8,72.9,30.13,ESE,113,2.9,4.3,82,0.00,,,0.01,WUHU216HW,2013-06-20 19:30:00,
2013-06-20 15:35:00,78.7,72.4,30.12,ENE,68,3.6,5.1,81,0.00,,,0.01,WUHU216HW,2013-06-20 19:35:00,
2013-06-20 15:40:00,78.5,72.2,30.12,East,90,1.3,7.2,81,0.00,,,0.01,WUHU216HW,2013-06-20 19:40:00,
2013-06-20 15:45:00,78.3,72.4,30.12,East,90,2.5,7.2,82,0.00,,,0.01,WUHU216HW,2013-06-20 19:45:00,
2013-06-20 15:50:00,78.3,72.0,30.12,ENE,68,2.9,8.5,81,0.00,,,0.01,WUHU216HW,2013-06-20 19:50:00,
2013-06-20 15:55:00,78.1,72.2,30.12,East,90,4.5,8.5,82,0.00,,,0.01,WUHU216HW,2013-06-20 19:55:00,
2013-06-20 16:00:00,78.3,72.4,30.12,East,90,5.4,5.4,82,0.00,,,0.01,WUHU216HW,2013-06-20 20:00:00,
2013-06-20 16:05:00,78.1,71.8,30.12,East,90,5.4,7.4,81,0.00,,,0.01,WUHU216HW,2013-06-20 20:05:00,
2013-06-20 16:10:00,78.1,72.2,30.12,East,90,5.4,7.4,82,0.00,,,0.01,WUHU216HW,2013-06-20 20:10:00,
2013-06-20 16:15:00,77.9,72.0,30.12,East,90,1.1,6.9,82,0.00,,,0.01,WUHU216HW,2013-06-20 20:15:00,
2013-06-20 16:20:00,77.8,71.8,30.12,ENE,68,3.4,8.9,82,0.00,,,0.01,WUHU216HW,2013-06-20 20:20:00,
2013-06-20 16:25:00,77.6,71.6,30.12,East,90,3.4,8.9,82,0.00,,,0.01,WUHU216HW,2013-06-20 20:25:00,
2013-06-20 16:30:00,77.8,71.8,30.12,ENE,68,6.9,10.5,82,0.00,,,0.01,WUHU216HW,2013-06-20 20:30:00,
2013-06-20 16:35:00,77.6,71.6,30.12,NW,315,0.9,10.5,82,0.00,,,0.01,WUHU216HW,2013-06-20 20:35:00,
2013-06-20 16:40:00,77.8,72.2,30.12,East,90,6.0,6.0,83,0.00,,,0.01,WUHU216HW,2013-06-20 20:40:00,
2013-06-20 16:45:00,77.8,72.2,30.12,ENE,68,4.0,6.3,83,0.00,,,0.01,WUHU216HW,2013-06-20 20:45:00,
2013-06-20 16:50:00,78.1,72.2,30.12,ENE,68,2.5,6.3,82,0.00,,,0.01,WUHU216HW,2013-06-20 20:50:00,
2013-06-20 16:55:00,78.1,72.2,30.12,East,90,2.9,9.4,82,0.00,,,0.01,WUHU216HW,2013-06-20 20:55:00,
2013-06-20 17:00:00,78.5,72.5,30.12,SE,135,1.8,9.4,82,0.00,,,0.01,WUHU216HW,2013-06-20 21:00:00,
2013-06-20 17:05:00,78.8,72.9,30.12,East,90,3.1,3.1,82,0.00,,,0.01,WUHU216HW,2013-06-20 21:05:00,
2013-06-20 17:10:00,79.0,72.7,30.12,ENE,68,4.3,6.3,81,0.00,,,0.01,WUHU216HW,2013-06-20 21:10:00,
2013-06-20 17:15:00,78.8,72.5,30.12,East,90,5.1,10.5,81,0.00,,,0.01,WUHU216HW,2013-06-20 21:15:00,
2013-06-20 17:20:00,78.8,72.5,30.12,ENE,68,7.6,10.5,81,0.00,,,0.01,WUHU216HW,2013-06-20 21:20:00,
2013-06-20 17:25:00,78.8,72.2,30.11,ENE,68,4.5,7.6,80,0.00,,,0.01,WUHU216HW,2013-06-20 21:25:00,
2013-06-20 17:30:00,78.8,72.5,30.11,East,90,4.0,6.9,81,0.00,,,0.01,WUHU216HW,2013-06-20 21:30:00,
2013-06-20 17:35:00,79.0,72.4,30.11,East,90,5.4,9.2,80,0.00,,,0.01,WUHU216HW,2013-06-20 21:35:00,
2013-06-20 17:40:00,79.2,72.5,30.11,NE,45,0.7,9.2,80,0.00,,,0.01,WUHU216HW,2013-06-20 21:40:00,
2013-06-20 17:45:00,79.0,72.0,30.11,East,90,11.2,11.2,79,0.00,,,0.01,WUHU216HW,2013-06-20 21:45:00,
2013-06-20 17:50:00,79.0,72.4,30.11,ESE,113,1.8,11.2,80,0.00,,,0.01,WUHU216HW,2013-06-20 21:50:00,
2013-06-20 17:55:00,79.0,72.0,30.11,ESE,113,6.9,7.6,79,0.00,,,0.01,WUHU216HW,2013-06-20 21:55:00,
2013-06-20 18:00:00,78.8,71.4,30.10,East,90,4.7,9.8,78,0.00,,,0.01,WUHU216HW,2013-06-20 22:00:00,
2013-06-20 18:05:00,79.0,72.0,30.10,ENE,68,3.6,9.8,79,0.00,,,0.01,WUHU216HW,2013-06-20 22:05:00,
2013-06-20 18:10:00,79.0,72.0,30.10,ENE,68,4.9,9.8,79,0.00,,,0.01,WUHU216HW,2013-06-20 22:10:00,
2013-06-20 18:15:00,79.0,72.0,30.10,ENE,68,7.8,7.8,79,0.00,,,0.01,WUHU216HW,2013-06-20 22:15:00,
2013-06-20 18:20:00,79.0,71.6,30.10,ENE,68,9.2,10.3,78,0.00,,,0.01,WUHU216HW,2013-06-20 22:20:00,
2013-06-20 18:25:00,78.8,71.8,30.10,East,90,4.5,10.3,79,0.00,,,0.01,WUHU216HW,2013-06-20 22:25:00,
2013-06-20 18:30:00,78.8,71.8,30.10,East,90,8.5,8.5,79,0.00,,,0.01,WUHU216HW,2013-06-20 22:30:00,
2013-06-20 18:35:00,78.8,71.4,30.10,East,90,5.6,9.6,78,0.00,,,0.01,WUHU216HW,2013-06-20 22:35:00,
2013-06-20 18:40:00,78.8,71.4,30.10,East,90,3.4,9.6,78,0.00,,,0.01,WUHU216HW,2013-06-20 22:40:00,
2013-06-20 18:45:00,78.8,71.4,30.10,ENE,68,8.7,8.7,78,0.00,,,0.01,WUHU216HW,2013-06-20 22:45:00,
2013-06-20 18:50:00,78.7,71.2,30.10,ENE,68,3.6,8.7,78,0.00,,,0.01,WUHU216HW,2013-06-20 22:50:00,
2013-06-20 18:55:00,78.5,71.0,30.10,East,90,6.7,9.2,78,0.00,,,0.01,WUHU216HW,2013-06-20 22:55:00,
2013-06-20 19:00:00,78.3,70.8,30.10,East,90,2.5,9.2,78,0.00,,,0.01,WUHU216HW,2013-06-20 23:00:00,
2013-06-20 19:05:00,78.3,70.8,30.11,ESE,113,4.7,8.3,78,0.00,,,0.01,WUHU216HW,2013-06-20 23:05:00,
2013-06-20 19:10:00,78.1,70.7,30.11,ESE,113,2.5,8.3,78,0.00,,,0.01,WUHU216HW,2013-06-20 23:10:00,
2013-06-20 19:15:00,78.1,70.7,30.11,ENE,68,2.9,9.4,78,0.00,,,0.01,WUHU216HW,2013-06-20 23:15:00,
2013-06-20 19:20:00,78.1,70.7,30.11,East,90,3.6,9.4,78,0.00,,,0.01,WUHU216HW,2013-06-20 23:20:00,
2013-06-20 19:25:00,77.9,70.5,30.11,ESE,113,3.6,7.6,78,0.00,,,0.01,WUHU216HW,2013-06-20 23:25:00,
2013-06-20 19:30:00,77.9,70.5,30.12,ESE,113,6.9,8.9,78,0.00,,,0.01,WUHU216HW,2013-06-20 23:30:00,
2013-06-20 19:35:00,77.9,70.5,30.11,East,90,4.3,8.9,78,0.00,,,0.01,WUHU216HW,2013-06-20 23:35:00,
2013-06-20 19:40:00,77.8,70.3,30.11,East,90,4.5,6.9,78,0.00,,,0.01,WUHU216HW,2013-06-20 23:40:00,
2013-06-20 19:45:00,77.8,70.8,30.11,East,90,2.5,6.9,79,0.00,,,0.01,WUHU216HW,2013-06-20 23:45:00,
2013-06-20 19:50:00,77.8,70.8,30.11,East,90,3.4,5.8,79,0.00,,,0.01,WUHU216HW,2013-06-20 23:50:00,
2013-06-20 19:55:00,77.6,70.6,30.11,NW,315,2.9,8.3,79,0.00,,,0.01,WUHU216HW,2013-06-20 23:55:00,
2013-06-20 20:00:00,77.6,70.1,30.11,East,90,5.4,8.3,78,0.00,,,0.01,WUHU216HW,2013-06-21 00:00:00,
2013-06-20 20:05:00,77.4,70.0,30.11,NE,45,8.5,8.5,78,0.00,,,0.01,WUHU216HW,2013-06-21 00:05:00,
2013-06-20 20:10:00,77.2,69.9,30.11,ENE,68,7.4,8.5,78,0.00,,,0.01,WUHU216HW,2013-06-21 00:10:00,
2013-06-20 20:15:00,77.2,69.9,30.11,ENE,68,7.4,10.5,78,0.00,,,0.01,WUHU216HW,2013-06-21 00:15:00,
2013-06-20 20:20:00,77.0,69.7,30.11,ENE,68,5.8,10.5,78,0.00,,,0.01,WUHU216HW,2013-06-21 00:20:00,
2013-06-20 20:25:00,77.0,70.0,30.11,ENE,68,2.7,8.5,79,0.00,,,0.01,WUHU216HW,2013-06-21 00:25:00,
2013-06-20 20:30:00,77.0,70.0,30.12,East,90,7.6,7.6,79,0.00,,,0.01,WUHU216HW,2013-06-21 00:30:00,
2013-06-20 20:35:00,77.0,70.0,30.11,East,90,3.4,7.8,79,0.00,,,0.01,WUHU216HW,2013-06-21 00:35:00,
2013-06-20 20:40:00,77.0,70.0,30.12,East,90,3.8,7.8,79,0.00,,,0.01,WUHU216HW,2013-06-21 00:40:00,
2013-06-20 20:45:00,77.0,70.4,30.12,ESE,113,5.4,9.4,80,0.00,,,0.01,WUHU216HW,2013-06-21 00:45:00,
2013-06-20 20:50:00,77.0,70.4,30.12,East,90,6.9,9.4,80,0.00,,,0.01,WUHU216HW,2013-06-21 00:50:00,
2013-06-20 20:55:00,76.9,70.2,30.12,ESE,113,5.1,6.9,80,0.00,,,0.01,WUHU216HW,2013-06-21 00:55:00,
2013-06-20 21:00:00,76.9,70.2,30.12,ENE,68,2.5,7.2,80,0.00,,,0.01,WUHU216HW,2013-06-21 01:00:00,
2013-06-20 21:05:00,76.9,70.2,30.12,East,90,3.1,7.2,80,0.00,,,0.01,WUHU216HW,2013-06-21 01:05:00,
2013-06-20 21:10:00,76.7,70.0,30.12,East,90,3.6,5.8,80,0.00,,,0.01,WUHU216HW,2013-06-21 01:10:00,
2013-06-20 21:15:00,76.7,69.7,30.12,ENE,68,4.0,5.8,79,0.00,,,0.01,WUHU216HW,2013-06-21 01:15:00,
2013-06-20 21:20:00,76.7,69.7,30.12,East,90,2.9,5.6,79,0.00,,,0.01,WUHU216HW,2013-06-21 01:20:00,
2013-06-20 21:25:00,76.7,69.7,30.13,ENE,68,2.5,6.5,79,0.00,,,0.01,WUHU216HW,2013-06-21 01:25:00,
2013-06-20 21:30:00,76.7,69.7,30.13,ENE,68,2.0,6.5,79,0.00,,,0.01,WUHU216HW,2013-06-21 01:30:00,
2013-06-20 21:35:00,76.7,70.0,30.13,ENE,68,3.8,6.0,80,0.00,,,0.01,WUHU216HW,2013-06-21 01:35:00,
2013-06-20 21:40:00,76.5,69.5,30.14,ENE,68,1.8,6.0,79,0.00,,,0.01,WUHU216HW,2013-06-21 01:40:00,
2013-06-20 21:45:00,76.5,69.5,30.14,East,90,3.1,6.0,79,0.00,,,0.01,WUHU216HW,2013-06-21 01:45:00,
2013-06-20 21:50:00,76.3,68.9,30.14,ENE,68,5.1,6.0,78,0.00,,,0.01,WUHU216HW,2013-06-21 01:50:00,
2013-06-20 21:55:00,76.3,68.9,30.14,East,90,5.4,6.7,78,0.00,,,0.01,WUHU216HW,2013-06-21 01:55:00,
2013-06-20 22:00:00,76.3,68.9,30.14,ENE,68,3.4,6.7,78,0.00,,,0.01,WUHU216HW,2013-06-21 02:00:00,
2013-06-20 22:05:00,76.3,68.9,30.14,East,90,6.3,6.3,78,0.00,,,0.01,WUHU216HW,2013-06-21 02:05:00,
2013-06-20 22:10:00,76.3,69.4,30.15,ENE,68,1.3,6.3,79,0.00,,,0.01,WUHU216HW,2013-06-21 02:10:00,
2013-06-20 22:15:00,76.3,69.4,30.15,East,90,1.8,4.3,79,0.00,,,0.01,WUHU216HW,2013-06-21 02:15:00,
2013-06-20 22:20:00,76.1,69.2,30.15,ENE,68,2.7,3.4,79,0.00,,,0.01,WUHU216HW,2013-06-21 02:20:00,
2013-06-20 22:25:00,76.1,69.2,30.15,ENE,68,1.6,5.8,79,0.00,,,0.01,WUHU216HW,2013-06-21 02:25:00,
2013-06-20 22:30:00,76.0,69.0,30.15,ENE,68,3.1,5.8,79,0.00,,,0.01,WUHU216HW,2013-06-21 02:30:00,
2013-06-20 22:35:00,76.0,69.4,30.15,East,90,4.5,5.8,80,0.00,,,0.01,WUHU216HW,2013-06-21 02:35:00,
2013-06-20 22:40:00,76.1,69.9,30.15,ENE,68,4.5,5.6,81,0.00,,,0.01,WUHU216HW,2013-06-21 02:40:00,
2013-06-20 22:45:00,76.1,69.9,30.16,ENE,68,7.6,7.6,81,0.00,,,0.01,WUHU216HW,2013-06-21 02:45:00,
2013-06-20 22:50:00,76.1,69.9,30.15,NE,45,1.8,7.6,81,0.00,,,0.01,WUHU216HW,2013-06-21 02:50:00,
2013-06-20 22:55:00,76.1,69.9,30.15,East,90,6.5,6.5,81,0.00,,,0.01,WUHU216HW,2013-06-21 02:55:00,
2013-06-20 23:00:00,76.0,69.8,30.15,East,90,6.7,6.7,81,0.00,,,0.01,WUHU216HW,2013-06-21 03:00:00,
2013-06-20 23:05:00,76.0,70.1,30.15,ESE,113,4.0,6.7,82,0.00,,,0.01,WUHU216HW,2013-06-21 03:05:00,
2013-06-20 23:10:00,76.0,70.1,30.15,ENE,68,3.6,6.7,82,0.00,,,0.01,WUHU216HW,2013-06-21 03:10:00,
2013-06-20 23:15:00,76.0,70.1,30.15,East,90,5.4,6.3,82,0.00,,,0.01,WUHU216HW,2013-06-21 03:15:00,
2013-06-20 23:20:00,76.0,70.1,30.15,ENE,68,4.9,6.3,82,0.00,,,0.01,WUHU216HW,2013-06-21 03:20:00,
2013-06-20 23:25:00,76.0,70.1,30.15,ESE,113,2.5,5.1,82,0.00,,,0.01,WUHU216HW,2013-06-21 03:25:00,
2013-06-20 23:30:00,76.0,70.1,30.15,ENE,68,2.5,6.3,82,0.00,,,0.01,WUHU216HW,2013-06-21 03:30:00,
2013-06-20 23:35:00,76.0,70.1,30.15,East,90,1.1,6.3,82,0.00,,,0.01,WUHU216HW,2013-06-21 03:35:00,
2013-06-20 23:40:00,75.8,69.9,30.15,East,90,3.6,5.4,82,0.00,,,0.01,WUHU216HW,2013-06-21 03:40:00,
2013-06-20 23:45:00,75.8,69.9,30.15,East,90,4.0,5.4,82,0.00,,,0.01,WUHU216HW,2013-06-21 03:45:00,
2013-06-20 23:50:00,75.8,69.9,30.15,ENE,68,4.7,4.7,82,0.00,,,0.01,WUHU216HW,2013-06-21 03:50:00,
2013-06-20 23:55:00,75.6,70.1,30.15,ENE,68,2.5,5.4,83,0.00,,,0.01,WUHU216HW,2013-06-21 03:55:00,